Time;durP1;ratioP1;P1;durP2;ratioP2;P2;SDS_P1;SDS_P2;PMS_P1;PMS_P2;Temp;Humidity;BMP_temperature;BMP_pressure;BME280_temperature;BME280_humidity;BME280_pressure;Samples;Min_cycle;Max_cycle;Signal;HPM_P1;HPM_P2
2023/08/14 00:01:54;;;;;;;4.55;4.15;;;;;;;-145.63;58.58;38660.53;5033963;28;20037;-68
2023/08/14 00:04:20;;;;;;;4.35;3.90;;;;;;;-145.63;58.42;38676.16;5044628;28;20037;-66
2023/08/14 00:06:45;;;;;;;4.45;3.85;;;;;;;-145.63;58.17;38723.09;5029243;28;20040;-68
2023/08/14 00:09:11;;;;;;;6.35;4.95;;;;;;;-145.63;58.32;38682.03;5034366;28;20032;-68
2023/08/14 00:11:37;;;;;;;6.15;4.78;;;;;;;-145.63;58.64;38685.94;5038548;28;20034;-67
2023/08/14 00:14:03;;;;;;;5.38;4.75;;;;;;;-145.63;58.76;38682.03;5025638;28;20034;-68
2023/08/14 00:16:29;;;;;;;5.82;4.88;;;;;;;-145.63;58.98;38687.91;5044691;28;20032;-68
2023/08/14 00:18:55;;;;;;;4.85;4.45;;;;;;;-145.63;58.78;38666.38;5027583;28;20252;-67
2023/08/14 00:21:21;;;;;;;4.88;4.47;;;;;;;-145.63;58.86;38658.56;5036707;28;20083;-66
2023/08/14 00:23:47;;;;;;;6.65;4.65;;;;;;;-145.63;58.79;38650.75;5036911;28;20064;-67
2023/08/14 00:26:13;;;;;;;5.38;4.75;;;;;;;-145.63;59.03;38684.00;5027320;28;20041;-67
2023/08/14 00:28:39;;;;;;;6.88;4.68;;;;;;;-145.63;59.21;38717.22;5044255;28;20039;-68
2023/08/14 00:31:05;;;;;;;5.72;4.47;;;;;;;-145.63;59.18;38658.56;5026093;28;20191;-66
2023/08/14 00:33:31;;;;;;;5.63;5.03;;;;;;;-145.63;59.94;38723.09;5037662;28;20222;-66
2023/08/14 00:35:56;;;;;;;5.70;4.45;;;;;;;-145.63;59.85;38734.81;5035404;28;20017;-66
2023/08/14 00:38:22;;;;;;;6.50;4.45;;;;;;;-145.63;59.88;38719.19;5024262;28;20136;-65
2023/08/14 00:40:48;;;;;;;5.00;4.32;;;;;;;-145.63;59.84;38685.94;5028304;28;20290;-66
2023/08/14 00:43:14;;;;;;;4.72;4.32;;;;;;;-145.63;59.67;38715.28;5025142;28;20026;-67
2023/08/14 00:45:39;;;;;;;5.43;4.93;;;;;;;-145.63;59.78;38691.81;5043949;28;20290;-67
2023/08/14 00:48:05;;;;;;;5.28;4.70;;;;;;;-145.63;59.55;38719.19;5043716;28;20188;-67
2023/08/14 00:50:32;;;;;;;4.85;4.43;;;;;;;-145.63;59.71;38719.19;5038868;28;20049;-67
2023/08/14 00:53:00;;;;;;;6.07;4.45;;;;;;;-145.63;60.05;38740.69;5024528;28;20025;-67
2023/08/14 00:55:26;;;;;;;6.43;4.65;;;;;;;-145.63;59.78;38687.91;5043920;28;20040;-67
2023/08/14 00:57:54;;;;;;;4.93;4.50;;;;;;;-145.63;59.78;38691.81;5043779;28;20037;-68
2023/08/14 01:00:21;;;;;;;5.18;4.68;;;;;;;-145.63;59.64;38668.34;5035183;28;20053;-67
2023/08/14 01:02:48;;;;;;;4.63;4.20;;;;;;;-145.63;59.96;38682.03;5035057;28;20226;-67
2023/08/14 01:05:14;;;;;;;7.97;5.15;;;;;;;-145.63;59.98;38728.97;5039852;28;20086;-68
2023/08/14 01:07:40;;;;;;;5.72;4.78;;;;;;;-145.63;60.09;38744.59;5025738;28;20225;-68
2023/08/14 01:10:08;;;;;;;6.25;4.78;;;;;;;-145.63;59.97;38713.31;5043444;28;20029;-68
2023/08/14 01:12:43;;;;;;;5.50;4.40;;;;;;;-145.63;60.00;38734.81;5030081;28;20072;-68
2023/08/14 01:15:18;;;;;;;5.07;4.57;;;;;;;-145.63;60.13;38703.53;5033879;28;20021;-67
2023/08/14 01:17:53;;;;;;;5.22;4.72;;;;;;;-145.63;60.00;38869.75;5037099;28;20029;-68
2023/08/14 01:20:20;;;;;;;4.85;4.38;;;;;;;-145.63;60.11;38697.69;5026697;28;20037;-67
2023/08/14 01:22:49;;;;;;;4.43;4.03;;;;;;;-145.63;59.90;38674.22;5043470;28;20037;-67
2023/08/14 01:25:37;;;;;;;6.97;4.20;;;;;;;-145.63;59.71;38672.25;5023541;28;20029;-66
2023/08/14 01:28:05;;;;;;;5.90;5.00;;;;;;;-145.63;59.84;38709.41;5040731;28;20071;-66
2023/08/14 01:30:31;;;;;;;5.07;4.57;;;;;;;-145.63;60.01;38685.94;5030564;28;20306;-66
2023/08/14 01:32:57;;;;;;;5.97;4.82;;;;;;;-145.63;60.11;38687.91;5031492;28;20033;-67
2023/08/14 01:35:33;;;;;;;6.13;5.28;;;;;;;-145.63;59.80;38437.59;5039679;28;20034;-66
2023/08/14 01:38:07;;;;;;;6.75;5.20;;;;;;;-145.63;59.92;38717.22;5023527;28;20045;-67
2023/08/14 01:41:05;;;;;;;6.63;5.13;;;;;;;-145.63;59.72;38685.94;5039822;28;20124;-67
2023/08/14 01:43:36;;;;;;;6.05;5.45;;;;;;;-145.63;59.73;38703.53;5023298;28;20069;-67
2023/08/14 01:46:05;;;;;;;11.20;8.93;;;;;;;-145.63;60.20;38693.75;5043049;28;20056;-68
2023/08/14 01:48:31;;;;;;;6.53;6.03;;;;;;;-145.63;59.78;38705.50;5043212;28;20047;-68
2023/08/14 01:50:58;;;;;;;6.53;5.45;;;;;;;-145.63;59.86;38678.13;5034823;28;20036;-67
2023/08/14 01:53:24;;;;;;;6.80;4.93;;;;;;;-145.63;59.79;38727.00;5026821;28;20056;-68
2023/08/14 01:55:50;;;;;;;7.20;5.60;;;;;;;-145.63;59.81;38719.19;5042163;28;20416;-67
2023/08/14 01:58:15;;;;;;;4.82;4.35;;;;;;;-145.63;59.65;38678.13;5024560;28;20029;-68
2023/08/14 02:00:41;;;;;;;6.10;5.03;;;;;;;-145.63;59.79;38695.72;5028790;28;20405;-67
2023/08/14 02:03:07;;;;;;;4.68;4.13;;;;;;;-145.63;60.19;38687.91;5032153;28;20029;-67
2023/08/14 02:05:32;;;;;;;5.47;4.97;;;;;;;-145.63;59.86;38687.91;5037196;28;20068;-68
2023/08/14 02:07:58;;;;;;;4.90;3.90;;;;;;;-145.63;59.81;38687.91;5023186;28;20036;-67
2023/08/14 02:10:24;;;;;;;9.18;7.75;;;;;;;-145.63;59.72;38693.75;5028605;28;20303;-67
2023/08/14 02:12:49;;;;;;;5.68;4.80;;;;;;;-145.63;59.73;38672.25;5032959;28;20032;-67
2023/08/14 02:15:16;;;;;;;6.57;5.93;;;;;;;-145.63;59.53;38668.34;5032549;28;20041;-68
2023/08/14 02:17:42;;;;;;;6.95;4.95;;;;;;;-145.63;59.79;38707.44;5027905;28;20191;-67
2023/08/14 02:20:27;;;;;;;6.70;6.05;;;;;;;-145.63;59.67;38680.06;5041871;28;20393;-66
2023/08/14 02:22:53;;;;;;;6.43;5.82;;;;;;;-145.63;59.65;38672.25;5042564;28;20029;-67
2023/08/14 02:25:19;;;;;;;4.88;4.20;;;;;;;-145.63;59.63;38680.06;5023926;28;20045;-67
2023/08/14 02:27:46;;;;;;;10.00;8.30;;;;;;;-145.63;59.63;38662.47;5033187;28;20050;-68
2023/08/14 02:30:11;;;;;;;8.68;5.85;;;;;;;-145.63;59.71;38685.94;5021843;28;20084;-67
2023/08/14 02:32:37;;;;;;;4.65;4.32;;;;;;;-145.63;59.87;38684.00;5023112;28;20033;-67
2023/08/14 02:35:03;;;;;;;5.05;4.57;;;;;;;-145.63;59.78;38693.75;5048494;28;20037;-67
2023/08/14 02:37:33;;;;;;;4.25;3.85;;;;;;;-145.63;59.98;38633.16;5044214;28;20033;-68
2023/08/14 02:39:59;;;;;;;5.07;4.32;;;;;;;-145.63;60.32;38699.63;5029974;28;20029;-68
2023/08/14 02:42:26;;;;;;;6.47;4.45;;;;;;;-145.63;60.31;38660.53;5032486;28;20345;-67
2023/08/14 02:44:51;;;;;;;5.72;5.22;;;;;;;-145.63;60.64;38699.63;5035446;28;20306;-68
2023/08/14 02:47:17;;;;;;;5.65;5.15;;;;;;;-145.63;60.67;38707.44;5026274;28;20040;-67
2023/08/14 02:49:43;;;;;;;8.63;4.45;;;;;;;-145.63;60.95;38689.84;5026766;28;20069;-68
2023/08/14 02:52:09;;;;;;;4.47;4.07;;;;;;;-145.63;61.19;38652.69;5043372;28;20037;-66
2023/08/14 02:54:35;;;;;;;4.72;4.32;;;;;;;-145.63;61.29;38701.59;5045841;28;20029;-67
2023/08/14 02:57:00;;;;;;;5.13;4.22;;;;;;;-145.63;61.26;38750.47;5037885;28;20214;-67
2023/08/14 02:59:26;;;;;;;4.20;3.80;;;;;;;-145.63;61.22;38670.28;5031215;28;20203;-67
2023/08/14 03:01:51;;;;;;;5.25;4.35;;;;;;;-145.63;61.41;38695.72;5042212;28;20033;-66
2023/08/14 03:04:17;;;;;;;5.82;4.85;;;;;;;-145.63;61.49;38730.91;5035922;28;20046;-67
2023/08/14 03:06:43;;;;;;;5.82;4.05;;;;;;;-145.63;61.69;38719.19;5039305;28;20061;-68
2023/08/14 03:09:09;;;;;;;4.85;4.10;;;;;;;-145.63;61.69;38691.81;5035000;28;20063;-67
2023/08/14 03:11:35;;;;;;;5.75;3.60;;;;;;;-145.63;61.65;38728.97;5041370;28;20026;-68
2023/08/14 03:14:01;;;;;;;3.65;3.35;;;;;;;-145.63;61.43;38711.38;5025808;28;20032;-67
2023/08/14 03:16:26;;;;;;;4.45;3.50;;;;;;;-145.63;61.54;38732.88;5025599;28;20341;-67
2023/08/14 03:18:52;;;;;;;4.10;3.80;;;;;;;-145.63;61.73;38730.91;5025533;28;20029;-67
2023/08/14 03:21:18;;;;;;;4.22;3.83;;;;;;;-145.63;61.83;38707.44;5025684;28;20033;-69
2023/08/14 03:23:44;;;;;;;3.88;3.15;;;;;;;-145.63;61.95;38740.69;5030984;28;20025;-66
2023/08/14 03:26:10;;;;;;;4.53;3.30;;;;;;;-145.63;61.70;38719.19;5044293;28;20055;-67
2023/08/14 03:28:36;;;;;;;3.17;2.88;;;;;;;-145.63;61.92;38738.75;5030531;28;20314;-67
2023/08/14 03:31:02;;;;;;;3.83;3.05;;;;;;;-145.63;62.04;38721.13;5029221;28;20097;-66
2023/08/14 03:33:27;;;;;;;3.30;3.00;;;;;;;-145.63;61.84;38693.75;5036911;28;20026;-66
2023/08/14 03:35:54;;;;;;;3.65;3.00;;;;;;;-145.63;61.56;38760.25;5038522;28;20025;-66
2023/08/14 03:38:20;;;;;;;5.05;3.05;;;;;;;-145.63;61.78;38758.28;5027274;28;20029;-65
2023/08/14 03:40:46;;;;;;;5.45;2.65;;;;;;;-145.63;61.42;38689.84;5041372;28;20045;-66
2023/08/14 03:43:11;;;;;;;3.17;2.75;;;;;;;-145.63;61.73;38740.69;5042313;28;20373;-66
2023/08/14 03:45:37;;;;;;;3.85;2.67;;;;;;;-145.63;62.14;38719.19;5040635;28;20211;-67
2023/08/14 03:48:03;;;;;;;4.40;3.30;;;;;;;-145.63;62.29;38732.88;5032798;28;20038;-68
2023/08/14 03:50:30;;;;;;;3.83;2.88;;;;;;;-145.63;62.39;38676.16;5028360;28;20060;-69
2023/08/14 03:52:56;;;;;;;3.13;2.78;;;;;;;-145.63;61.97;38682.03;5025860;28;20025;-67
2023/08/14 03:55:22;;;;;;;3.95;2.85;;;;;;;-145.63;61.91;38762.22;5043526;28;20391;-67
2023/08/14 03:57:48;;;;;;;3.42;3.10;;;;;;;-145.63;62.35;38727.00;5031436;28;20038;-67
2023/08/14 04:00:14;;;;;;;3.60;3.10;;;;;;;-145.63;62.78;38723.09;5027843;28;20029;-67
2023/08/14 04:02:40;;;;;;;4.28;2.60;;;;;;;-145.63;62.57;38723.09;5029051;28;20041;-68
2023/08/14 04:05:06;;;;;;;3.47;3.00;;;;;;;-145.63;62.33;38754.38;5024937;28;20250;-68
2023/08/14 04:07:32;;;;;;;4.28;2.78;;;;;;;-145.63;62.32;38762.22;5044832;28;20032;-67
2023/08/14 04:09:58;;;;;;;4.93;3.22;;;;;;;-145.63;62.08;38707.44;5029393;28;20038;-67
2023/08/14 04:12:23;;;;;;;3.70;2.90;;;;;;;-145.63;61.98;38668.34;5035145;28;20017;-67
2023/08/14 04:14:50;;;;;;;2.95;2.70;;;;;;;-145.63;61.96;38670.28;5038959;28;20025;-68
2023/08/14 04:17:15;;;;;;;3.50;2.83;;;;;;;-145.63;61.73;38652.69;5025695;28;20045;-66
2023/08/14 04:19:41;;;;;;;3.40;3.10;;;;;;;-145.63;61.81;38695.72;5043364;28;20021;-67
2023/08/14 04:22:07;;;;;;;3.70;3.25;;;;;;;-145.63;61.73;38668.34;5027878;28;20048;-66
2023/08/14 04:24:33;;;;;;;3.72;3.42;;;;;;;-145.63;62.09;38695.72;5024356;28;20042;-65
2023/08/14 04:26:58;;;;;;;3.80;3.47;;;;;;;-145.63;61.92;38646.84;5024197;28;20021;-66
2023/08/14 04:29:24;;;;;;;3.45;3.13;;;;;;;-145.63;62.17;38707.44;5026888;28;20026;-66
2023/08/14 04:31:50;;;;;;;4.78;3.17;;;;;;;-145.63;62.28;38290.97;5041425;28;20040;-66
2023/08/14 04:34:16;;;;;;;3.47;2.95;;;;;;;-145.63;62.25;38488.44;5029927;28;20354;-66
2023/08/14 04:36:41;;;;;;;4.07;2.70;;;;;;;-145.63;62.37;38695.72;5036857;28;20034;-68
2023/08/14 04:39:07;;;;;;;3.97;3.20;;;;;;;-145.63;62.35;38660.53;5035818;28;20226;-67
2023/08/14 04:41:33;;;;;;;5.65;3.22;;;;;;;-145.63;62.47;38680.06;5037173;28;20213;-68
2023/08/14 04:43:59;;;;;;;4.03;3.35;;;;;;;-145.63;62.47;38691.81;5043675;28;20041;-67
2023/08/14 04:46:33;;;;;;;5.07;3.58;;;;;;;-145.63;62.83;38713.31;5024366;28;20063;-68
2023/08/14 04:49:00;;;;;;;3.97;3.65;;;;;;;-145.63;62.21;38674.22;5038848;28;20025;-67
2023/08/14 04:51:26;;;;;;;4.10;3.70;;;;;;;-145.63;62.52;38672.25;5043853;28;20194;-68
2023/08/14 04:53:54;;;;;;;6.35;4.97;;;;;;;-145.63;62.61;38738.75;5037908;28;20028;-68
2023/08/14 04:56:19;;;;;;;5.55;4.47;;;;;;;-145.63;62.31;38697.69;5025392;28;20033;-67
2023/08/14 04:58:45;;;;;;;6.88;5.55;;;;;;;-145.63;62.47;38648.78;5041267;28;20030;-68
2023/08/14 05:01:11;;;;;;;5.40;4.90;;;;;;;-145.63;62.32;38687.91;5027083;28;20045;-66
2023/08/14 05:03:37;;;;;;;5.43;4.93;;;;;;;-145.63;62.43;38684.00;5028592;28;20044;-66
2023/08/14 05:06:03;;;;;;;6.40;5.60;;;;;;;-145.63;62.56;38691.81;5029008;28;20030;-66
2023/08/14 05:08:30;;;;;;;7.90;6.07;;;;;;;-145.63;62.41;38695.72;5038077;28;20112;-65
2023/08/14 05:10:56;;;;;;;6.45;5.78;;;;;;;-145.63;62.69;38685.94;5023664;28;20030;-67
2023/08/14 05:13:22;;;;;;;5.93;5.20;;;;;;;-145.63;62.78;38656.59;5041309;28;20029;-66
2023/08/14 05:15:50;;;;;;;7.20;6.50;;;;;;;-145.63;62.98;38707.44;5039279;28;20033;-66
2023/08/14 05:18:16;;;;;;;6.80;6.20;;;;;;;-145.63;63.05;38687.91;5033748;28;20373;-67
2023/08/14 05:20:46;;;;;;;9.85;6.32;;;;;;;-145.63;62.98;38680.06;5027569;28;20037;-67
2023/08/14 05:23:12;;;;;;;8.43;6.60;;;;;;;-145.63;62.72;38662.47;5042033;28;20226;-66
2023/08/14 05:25:38;;;;;;;7.70;6.70;;;;;;;-145.63;62.83;38668.34;5032440;28;20025;-66
2023/08/14 05:28:05;;;;;;;9.48;6.00;;;;;;;-145.63;62.75;38695.72;5043162;28;20033;-66
2023/08/14 05:30:31;;;;;;;7.10;6.40;;;;;;;-145.63;62.05;38691.81;5032550;28;20018;-67
2023/08/14 05:32:57;;;;;;;7.93;6.60;;;;;;;-145.63;62.12;38656.59;5029165;28;20017;-66
2023/08/14 05:35:24;;;;;;;10.60;7.00;;;;;;;-145.63;62.04;38684.00;5041892;28;20029;-66
2023/08/14 05:37:57;;;;;;;8.27;7.47;;;;;;;-145.63;62.37;38633.16;5025060;28;20031;-65
2023/08/14 05:40:23;;;;;;;9.13;7.88;;;;;;;-145.63;62.38;38668.34;5036253;28;20075;-66
2023/08/14 05:43:08;;;;;;;8.27;7.05;;;;;;;-145.63;61.75;38062.22;5030298;28;20022;-66
2023/08/14 05:45:36;;;;;;;7.53;6.50;;;;;;;-145.63;62.35;38693.75;5042926;28;20089;-66
2023/08/14 05:48:03;;;;;;;6.85;6.25;;;;;;;-145.63;61.77;38674.22;5036304;28;20034;-66
2023/08/14 05:50:30;;;;;;;7.45;6.82;;;;;;;-145.63;62.02;38656.59;5023210;28;20056;-66
2023/08/14 05:52:59;;;;;;;8.10;6.78;;;;;;;-145.63;61.69;38658.56;5023155;28;20089;-66
2023/08/14 05:55:25;;;;;;;7.47;5.63;;;;;;;-145.63;61.79;38666.38;5022930;28;20022;-66
2023/08/14 05:57:51;;;;;;;7.30;5.53;;;;;;;-145.63;61.48;38701.59;5035816;28;20026;-65
2023/08/14 06:00:18;;;;;;;6.20;5.57;;;;;;;-145.63;61.94;38662.47;5032656;28;20254;-66
2023/08/14 06:02:44;;;;;;;6.63;5.60;;;;;;;-145.63;61.89;38711.38;5026659;28;20032;-66
2023/08/14 06:05:11;;;;;;;7.35;6.05;;;;;;;-145.63;62.35;38707.44;5042909;28;20064;-67
2023/08/14 06:07:36;;;;;;;8.88;5.90;;;;;;;-145.63;62.61;38734.81;5042750;28;20368;-67
2023/08/14 06:10:03;;;;;;;8.50;7.03;;;;;;;-145.63;62.37;38715.28;5042487;28;20092;-66
2023/08/14 06:12:31;;;;;;;9.77;7.10;;;;;;;-145.63;62.21;38689.84;5045375;28;20194;-66
2023/08/14 06:14:57;;;;;;;7.07;6.28;;;;;;;-145.63;62.35;38678.13;5040840;28;20068;-67
2023/08/14 06:17:23;;;;;;;7.07;6.47;;;;;;;-145.63;62.50;38695.72;5026818;28;20041;-67
2023/08/14 06:19:49;;;;;;;7.90;6.55;;;;;;;-145.63;62.50;38770.03;5025951;28;20053;-67
2023/08/14 06:22:15;;;;;;;7.80;6.63;;;;;;;-145.63;62.39;38805.22;5042684;28;20029;-67
2023/08/14 06:24:41;;;;;;;6.88;6.03;;;;;;;-145.63;62.40;38709.41;5034961;28;20326;-67
2023/08/14 06:27:07;;;;;;;12.00;8.00;;;;;;;-145.63;62.50;38680.06;5033635;28;20033;-66
2023/08/14 06:29:32;;;;;;;11.15;8.82;;;;;;;-145.63;62.22;38684.00;5044319;28;20029;-66
2023/08/14 06:31:58;;;;;;;9.88;7.28;;;;;;;-145.63;62.43;38652.69;5026482;28;20029;-67
2023/08/14 06:34:24;;;;;;;9.15;7.70;;;;;;;-145.63;62.39;38652.69;5043698;28;20037;-67
2023/08/14 06:36:49;;;;;;;8.45;7.15;;;;;;;-145.63;62.48;38644.88;5033956;28;20025;-66
2023/08/14 06:39:15;;;;;;;12.55;8.20;;;;;;;-145.63;62.09;38672.25;5033317;28;20068;-66
2023/08/14 06:41:41;;;;;;;8.32;7.32;;;;;;;-145.63;62.10;38672.25;5038172;28;20036;-65
2023/08/14 06:44:10;;;;;;;8.82;7.90;;;;;;;-145.63;62.04;38676.16;5045978;28;20025;-65
2023/08/14 06:46:36;;;;;;;8.80;7.88;;;;;;;-145.63;61.85;38644.88;5046235;28;20057;-65
2023/08/14 06:49:02;;;;;;;10.95;8.63;;;;;;;-145.63;61.73;38646.84;5045926;28;20036;-65
2023/08/14 06:51:27;;;;;;;14.93;13.00;;;;;;;-145.63;61.14;38639.00;5036457;28;20068;-65
2023/08/14 06:53:53;;;;;;;11.85;8.00;;;;;;;-145.63;62.17;38629.22;5030694;28;20033;-66
2023/08/14 06:56:19;;;;;;;12.23;8.13;;;;;;;-145.63;61.04;38627.28;5046122;28;20029;-67
2023/08/14 06:58:44;;;;;;;9.25;8.25;;;;;;;-145.63;61.11;38588.16;5026011;28;20025;-67
2023/08/14 07:01:11;;;;;;;9.82;8.18;;;;;;;-145.63;60.92;38525.59;5041253;28;20076;-67
2023/08/14 07:03:37;;;;;;;8.88;7.97;;;;;;;-145.63;60.86;38515.81;5035105;28;20054;-67
2023/08/14 07:06:03;;;;;;;8.70;7.80;;;;;;;-145.63;60.67;38584.25;5031754;28;20322;-67
2023/08/14 07:08:29;;;;;;;8.32;7.20;;;;;;;-145.63;59.67;38601.84;5044239;28;20032;-67
2023/08/14 07:10:54;;;;;;;13.13;6.93;;;;;;;-145.63;58.95;38566.66;5035181;28;20199;-66
2023/08/14 07:13:21;;;;;;;8.35;6.57;;;;;;;-145.63;59.32;38558.84;5029725;28;20315;-66
2023/08/14 07:15:47;;;;;;;9.45;7.63;;;;;;;-145.63;59.38;38541.25;5034102;28;20097;-66
2023/08/14 07:18:15;;;;;;;8.63;7.10;;;;;;;-145.63;58.58;38519.72;5032846;28;20334;-66
2023/08/14 07:20:41;;;;;;;8.35;7.50;;;;;;;-145.63;59.24;38549.06;5042750;28;20064;-66
2023/08/14 07:23:07;;;;;;;9.05;7.20;;;;;;;-145.63;58.70;38472.81;5025490;28;20384;-66
2023/08/14 07:25:33;;;;;;;8.02;7.20;;;;;;;-145.63;58.99;38564.72;5038491;28;20049;-64
2023/08/14 07:27:58;;;;;;;12.35;7.35;;;;;;;-145.63;59.65;38541.25;5032947;28;20036;-65
2023/08/14 07:30:25;;;;;;;7.57;6.88;;;;;;;-145.63;60.01;38541.25;5049187;28;20022;-65
2023/08/14 07:32:50;;;;;;;8.43;7.63;;;;;;;-145.63;60.19;38543.19;5034688;28;20029;-65
2023/08/14 07:35:16;;;;;;;10.60;7.68;;;;;;;-145.63;60.54;38609.69;5035994;28;20041;-64
2023/08/14 07:37:42;;;;;;;8.07;7.28;;;;;;;-145.63;60.69;38582.31;5035584;28;20037;-65
2023/08/14 07:40:09;;;;;;;8.65;7.75;;;;;;;-145.63;60.87;38601.84;5024780;28;20025;-65
2023/08/14 07:42:34;;;;;;;9.55;7.53;;;;;;;-145.63;60.89;38615.53;5043478;28;20057;-65
2023/08/14 07:45:00;;;;;;;11.38;8.45;;;;;;;-145.63;61.25;38533.41;5044858;28;20080;-65
2023/08/14 07:47:26;;;;;;;8.85;7.95;;;;;;;-145.63;61.53;38603.81;5043360;28;20048;-66
2023/08/14 07:49:52;;;;;;;12.65;8.15;;;;;;;-145.63;61.39;38601.84;5033780;28;20174;-67
2023/08/14 07:52:17;;;;;;;8.88;7.97;;;;;;;-145.63;61.03;38582.31;5036131;28;20341;-66
2023/08/14 07:54:43;;;;;;;9.93;8.10;;;;;;;-145.63;61.02;38554.94;5031503;28;20045;-66
2023/08/14 07:57:09;;;;;;;9.20;7.50;;;;;;;-145.63;60.57;38492.34;5038160;28;20218;-66
2023/08/14 07:59:34;;;;;;;9.35;8.18;;;;;;;-145.63;61.15;38463.03;5026227;28;20097;-66
2023/08/14 08:02:00;;;;;;;8.45;7.53;;;;;;;-145.63;58.80;38470.84;5043856;28;20036;-65
2023/08/14 08:04:26;;;;;;;10.13;7.70;;;;;;;-145.63;59.17;38472.81;5038149;28;20250;-66
2023/08/14 08:06:52;;;;;;;8.10;7.10;;;;;;;-145.63;59.08;38410.22;5031676;28;20219;-67
2023/08/14 08:09:17;;;;;;;9.15;7.40;;;;;;;-145.63;58.88;38445.44;5032368;28;20390;-66
2023/08/14 08:11:43;;;;;;;8.68;7.10;;;;;;;-145.63;58.74;38406.31;5035881;28;20037;-68
2023/08/14 08:14:09;;;;;;;10.82;7.75;;;;;;;-145.63;59.17;38443.47;5043961;28;20330;-66
2023/08/14 08:16:37;;;;;;;15.25;8.45;;;;;;;-145.63;59.03;38451.28;5040095;28;20036;-67
2023/08/14 08:19:04;;;;;;;8.32;6.78;;;;;;;-145.63;57.78;38597.94;5039569;28;20306;-68
2023/08/14 08:21:30;;;;;;;7.20;6.50;;;;;;;-145.63;57.32;38437.59;5032224;28;20041;-67
2023/08/14 08:23:56;;;;;;;7.93;6.80;;;;;;;-145.63;57.94;38447.38;5039626;28;20022;-67
2023/08/14 08:26:22;;;;;;;7.25;6.53;;;;;;;-145.63;57.73;38427.84;5024409;28;20044;-66
2023/08/14 08:28:48;;;;;;;9.55;6.65;;;;;;;-145.63;58.24;38443.47;5043581;28;20033;-66
2023/08/14 08:31:14;;;;;;;8.60;6.82;;;;;;;-145.63;57.74;38447.38;5043850;28;20040;-66
2023/08/14 08:33:40;;;;;;;8.13;6.90;;;;;;;-145.63;56.73;38425.88;5033465;28;20033;-67
2023/08/14 08:36:06;;;;;;;7.57;6.45;;;;;;;-145.63;57.46;38463.03;5029265;28;20100;-67
2023/08/14 08:38:31;;;;;;;7.35;6.65;;;;;;;-145.63;57.00;38535.38;5043182;28;20033;-66
2023/08/14 08:41:01;;;;;;;9.20;6.40;;;;;;;-145.63;57.07;38461.06;5031777;28;20069;-67
2023/08/14 08:43:27;;;;;;;7.35;6.07;;;;;;;-145.63;56.99;38508.00;5029357;28;20098;-68
2023/08/14 08:45:57;;;;;;;7.93;6.47;;;;;;;-145.63;56.82;38494.31;5043832;28;20032;-67
2023/08/14 08:48:24;;;;;;;8.38;5.95;;;;;;;-145.63;56.53;38455.22;5035973;28;20056;-66
2023/08/14 08:50:51;;;;;;;6.95;6.00;;;;;;;-145.63;56.90;38457.16;5030692;28;20033;-66
2023/08/14 08:53:20;;;;;;;7.97;6.55;;;;;;;-145.63;57.36;38466.94;5033610;28;20053;-65
2023/08/14 08:55:47;;;;;;;8.20;5.90;;;;;;;-145.63;56.82;38472.81;5042476;28;20039;-66
2023/08/14 08:58:17;;;;;;;7.60;6.55;;;;;;;-145.63;57.22;38463.03;5031618;28;20041;-65
2023/08/14 09:00:43;;;;;;;9.10;6.88;;;;;;;-145.63;57.18;38494.31;5036173;28;20263;-67
2023/08/14 09:03:09;;;;;;;10.68;6.85;;;;;;;-145.63;56.66;38519.72;5031764;28;20167;-67
2023/08/14 09:05:36;;;;;;;8.45;6.47;;;;;;;-145.63;57.02;38371.13;5036546;28;20047;-67
2023/08/14 09:08:03;;;;;;;8.80;6.60;;;;;;;-145.63;57.26;38461.06;5036351;28;20117;-66
2023/08/14 09:10:29;;;;;;;8.02;6.25;;;;;;;-145.63;57.02;38519.72;5030216;28;20080;-66
2023/08/14 09:12:58;;;;;;;5.97;5.47;;;;;;;-145.63;56.93;38468.91;5031404;28;20044;-65
2023/08/14 09:15:24;;;;;;;6.65;6.05;;;;;;;-145.63;57.11;38502.13;5032072;28;20056;-64
2023/08/14 09:17:52;;;;;;;11.55;6.00;;;;;;;-145.63;56.78;38459.13;5035591;28;20068;-65
2023/08/14 09:20:21;;;;;;;7.45;6.38;;;;;;;-145.63;57.41;38488.44;5041093;28;20040;-65
2023/08/14 09:22:48;;;;;;;8.13;5.90;;;;;;;-145.63;57.11;38451.28;5023442;28;20030;-65
2023/08/14 09:25:15;;;;;;;6.60;5.65;;;;;;;-145.63;56.57;38463.03;5037351;28;20055;-65
2023/08/14 09:27:43;;;;;;;6.55;5.95;;;;;;;-145.63;56.54;38445.44;5038569;28;20061;-65
2023/08/14 09:30:12;;;;;;;6.20;5.55;;;;;;;-145.63;57.25;38519.72;5043023;28;20075;-65
2023/08/14 09:32:38;;;;;;;6.70;5.75;;;;;;;-145.63;57.34;38433.69;5041622;28;20032;-65
2023/08/14 09:35:04;;;;;;;8.38;6.32;;;;;;;-145.63;57.46;38490.41;5030650;28;20093;-65
2023/08/14 09:37:32;;;;;;;7.55;6.47;;;;;;;-145.63;57.61;38519.72;5026548;28;20239;-64
2023/08/14 09:40:15;;;;;;;8.32;5.93;;;;;;;-145.63;56.99;38463.03;5035026;28;20021;-64
2023/08/14 09:42:46;;;;;;;7.18;6.47;;;;;;;-145.63;57.93;38464.97;5041690;28;20076;-64
2023/08/14 09:45:13;;;;;;;7.72;6.15;;;;;;;-145.63;57.41;38449.34;5042542;28;20029;-66
2023/08/14 09:47:44;;;;;;;6.90;6.20;;;;;;;-145.63;57.23;38441.53;5041581;28;20564;-67
2023/08/14 09:50:11;;;;;;;6.85;5.90;;;;;;;-145.63;56.74;38425.88;5042350;28;20037;-65
2023/08/14 09:52:37;;;;;;;6.80;6.10;;;;;;;-145.63;56.67;38433.69;5025337;28;20370;-67
2023/08/14 09:55:04;;;;;;;8.23;6.03;;;;;;;-145.63;56.54;38406.31;5035521;28;20051;-64
2023/08/14 09:57:30;;;;;;;8.00;6.07;;;;;;;-145.63;56.18;38347.66;5042620;28;20021;-64
2023/08/14 09:59:56;;;;;;;6.82;6.13;;;;;;;-145.63;55.53;38308.56;5036942;28;20290;-64
2023/08/14 10:02:23;;;;;;;6.38;5.45;;;;;;;-145.63;54.93;38361.34;5042660;28;20068;-65
2023/08/14 10:04:50;;;;;;;7.53;5.78;;;;;;;-145.63;55.01;38308.56;5023846;28;20084;-68
2023/08/14 10:07:17;;;;;;;7.13;6.18;;;;;;;-145.63;54.67;38290.97;5022537;28;20104;-66
2023/08/14 10:09:57;;;;;;;8.45;6.45;;;;;;;-145.63;54.65;38330.06;5032511;28;20109;-68
2023/08/14 10:12:28;;;;;;;11.27;9.13;;;;;;;-145.63;54.28;38318.34;5042047;28;20075;-66
2023/08/14 10:15:10;;;;;;;10.27;7.65;;;;;;;-145.63;54.39;38308.56;5038807;28;20067;-66
2023/08/14 10:17:43;;;;;;;;;;;;;;;-145.63;54.19;38328.13;5039899;28;20037;-67
2023/08/14 10:20:11;;;;;;;9.55;6.25;;;;;;;-145.63;53.92;38390.69;5022961;28;20087;-66
2023/08/14 10:22:39;;;;;;;8.43;7.60;;;;;;;-145.63;54.56;38345.72;5024032;28;20037;-69
2023/08/14 10:25:06;;;;;;;10.02;7.30;;;;;;;-145.63;54.14;38275.31;5035410;28;20097;-68
2023/08/14 10:27:32;;;;;;;8.68;6.00;;;;;;;-145.63;54.14;38277.28;5034585;28;20029;-68
2023/08/14 10:29:59;;;;;;;7.40;6.68;;;;;;;-145.63;54.24;38330.06;5022861;28;20041;-63
2023/08/14 10:32:26;;;;;;;7.93;7.13;;;;;;;-145.63;53.84;38308.56;5022634;28;20029;-63
2023/08/14 10:34:54;;;;;;;8.57;6.80;;;;;;;-145.63;53.78;38332.03;5037835;28;20057;-64
2023/08/14 10:37:27;;;;;;;7.38;6.68;;;;;;;-145.63;54.01;38351.56;5027980;28;20029;-63
2023/08/14 10:40:17;;;;;;;9.60;7.25;;;;;;;-145.63;53.90;38251.84;5022554;28;20025;-64
2023/08/14 10:42:55;;;;;;;7.40;6.15;;;;;;;-145.63;53.86;38351.56;5041768;28;20049;-64
2023/08/14 10:45:23;;;;;;;8.77;6.72;;;;;;;-145.63;53.73;38130.63;5041274;28;20044;-66
2023/08/14 10:47:57;;;;;;;8.43;6.60;;;;;;;-145.63;54.06;38351.56;5040258;28;20056;-63
2023/08/14 10:50:26;;;;;;;6.97;6.28;;;;;;;-145.63;54.26;38337.88;5022634;28;20034;-64
2023/08/14 10:52:55;;;;;;;7.65;6.88;;;;;;;-145.63;53.96;38371.13;5040969;28;20033;-65
2023/08/14 10:55:24;;;;;;;8.77;6.85;;;;;;;-145.63;53.67;38337.88;5027782;28;20072;-65
2023/08/14 10:57:50;;;;;;;6.97;6.38;;;;;;;-145.63;53.84;38339.84;5042431;28;20132;-65
2023/08/14 11:00:43;;;;;;;7.47;6.65;;;;;;;-145.63;53.90;38318.34;5045214;28;20231;-65
2023/08/14 11:03:11;;;;;;;9.20;7.03;;;;;;;-145.63;54.34;38316.38;5030142;28;20025;-65
2023/08/14 11:05:40;;;;;;;7.95;6.78;;;;;;;-145.63;54.28;38306.59;5045371;28;20373;-66
2023/08/14 11:08:08;;;;;;;8.73;6.72;;;;;;;-145.63;54.42;38377.00;5045233;28;20060;-66
2023/08/14 11:10:34;;;;;;;7.45;6.78;;;;;;;-145.63;54.44;38351.56;5037139;28;20021;-65
2023/08/14 11:13:00;;;;;;;7.90;7.05;;;;;;;-145.63;54.09;38359.41;5033498;28;20053;-65
2023/08/14 11:15:26;;;;;;;8.68;6.70;;;;;;;-145.63;54.21;38359.41;5032397;28;20032;-64
2023/08/14 11:17:51;;;;;;;8.77;7.25;;;;;;;-145.63;54.30;38355.50;5043176;28;20025;-66